Boaz, AL

2:21 PM CDT on July 28, 2016 (GMT -0500)
Double Bridges | | Change Station

Elev 1083 ft 34.22 °N, 86.13 °W | Updated 1 minute ago

Mostly Cloudy
Mostly Cloudy
90.1 °F
Feels Like 101 °F
N
4.2
Wind Variable Wind from East

Today
High -- | Low -- °F
--% Chance of Precip.
Yesterday
High -- | Low -- °F
Precip. -- in
Pressure 29.97 in
Visibility 10.0 miles
Clouds Scattered Clouds 3400 ft
Scattered Clouds 4000 ft
Mostly Cloudy 5000 ft
Heat Index 101 °F
Dew Point 75 °F
Humidity 62%
Rainfall 0.00 in
Snow Depth Not available.
5:53 AM 7:48 PM
Waning Crescent, 29% visible
METAR K8A0 281915Z AUTO 22010G20KT 189V249 10SM SCT034 SCT040 BKN050 30/25 A2997 RMK AO2 LTG DSNT SW AND W
Pressure 29.97 in
Visibility 10.0 miles
Clouds Scattered Clouds 3400 ft
Scattered Clouds 4000 ft
Mostly Cloudy 5000 ft
Heat Index 101 °F
Dew Point 75 °F
Humidity 62%
Rainfall 0.00 in
Snow Depth Not available.
5:53 AM 7:48 PM
Waning Crescent, 29% visible
METAR K8A0 281915Z AUTO 22010G20KT 189V249 10SM SCT034 SCT040 BKN050 30/25 A2997 RMK AO2 LTG DSNT SW AND W

10-Day Weather Forecast

Almanac

Astronomy

Jul. 28, 2016 Rise Set
Actual Time
Civil Twilight
Nautical Twilight
Astronomical Twilight
Moon
Length of Visible Light
Length of Day
Tomorrow will be .
, % of the Moon is Illuminated

Today's Extremes

State Highs State Lows

Community

WunderPhotos

Upload Photos

1,928,191 photos uploaded!

WunderBlog® & News

Nearby

Air Quality

  Air Quality AQ Index Pollutant
Not available.

Snow Depth

Station Depth Elevation

Earthquake Activity

City Distance Mag. Time & Date
Minimum magnitude displayed is 2.5.

Coastal Water Temperatures

Place Temperature

Stations

Nearby Weather Stations

Station Location Temp. Windchill Dew Point Humidity Wind Precip. Elev Updated Type
                   

Watches & Warnings

There are currently no watches in effect.